Time;durP1;ratioP1;P1;durP2;ratioP2;P2;SDS_P1;SDS_P2;PMS_P1;PMS_P2;Temp;Humidity;BMP_temperature;BMP_pressure;BME280_temperature;BME280_humidity;BME280_pressure;Samples;Min_cycle;Max_cycle;Signal;HPM_P1;HPM_P2
2022/02/19 00:01:41;0.00;0.00;0.62;0.00;0.00;0.62;5.57;1.40;;;21.00;24.50;;;;;;2249037;61;20349;-63
2022/02/19 00:04:25;0.00;0.00;0.62;0.00;0.00;0.62;3.40;1.80;;;20.90;24.40;;;;;;2248806;61;20387;-63
2022/02/19 00:07:10;0.00;0.00;0.62;0.00;0.00;0.62;2.27;1.20;;;20.90;24.40;;;;;;2249751;61;20380;-64
2022/02/19 00:09:54;0.00;0.00;0.62;0.00;0.00;0.62;2.40;1.43;;;20.90;24.40;;;;;;2249257;61;20377;-64
2022/02/19 00:12:39;0.00;0.00;0.62;0.00;0.00;0.62;2.80;1.33;;;20.90;24.40;;;;;;2248961;61;20644;-63
2022/02/19 00:15:24;0.00;0.00;0.62;0.00;0.00;0.62;3.13;1.10;;;20.90;24.40;;;;;;2249274;61;20588;-65
2022/02/19 00:18:11;0.00;0.00;0.62;0.00;0.00;0.62;3.43;1.57;;;20.90;24.30;;;;;;2248222;61;20437;-63
2022/02/19 00:20:56;0.00;0.00;0.62;0.00;0.00;0.62;2.73;1.30;;;20.90;24.30;;;;;;2249083;61;20372;-65
2022/02/19 00:23:42;0.00;0.00;0.62;0.00;0.00;0.62;3.83;1.30;;;20.90;24.30;;;;;;2248930;61;20352;-64
2022/02/19 00:26:26;0.00;0.00;0.62;0.00;0.00;0.62;4.93;1.10;;;20.80;24.20;;;;;;2248772;61;20367;-63
2022/02/19 00:29:11;0.00;0.00;0.62;0.00;0.00;0.62;3.20;1.17;;;20.80;24.20;;;;;;2249018;61;20424;-64
2022/02/19 00:31:56;0.00;0.00;0.62;0.00;0.00;0.62;2.60;1.10;;;20.80;24.20;;;;;;2249268;61;20404;-64
2022/02/19 00:34:43;0.00;0.00;0.62;0.00;0.00;0.62;2.57;1.20;;;20.80;24.20;;;;;;2248429;61;20388;-65
2022/02/19 00:37:27;0.00;0.00;0.62;0.00;0.00;0.62;2.70;1.50;;;20.80;24.20;;;;;;2249096;61;20409;-64
2022/02/19 00:40:12;0.00;0.00;0.62;0.00;0.00;0.62;2.40;1.30;;;20.80;24.20;;;;;;2248526;61;20455;-63
2022/02/19 00:42:57;0.00;0.00;0.62;0.00;0.00;0.62;3.27;1.90;;;20.80;24.20;;;;;;2249535;61;20408;-62
2022/02/19 00:45:43;0.00;0.00;0.62;0.00;0.00;0.62;3.77;1.47;;;20.80;24.20;;;;;;2248666;61;20385;-64
2022/02/19 00:48:28;0.00;0.00;0.62;0.00;0.00;0.62;3.60;1.30;;;20.80;24.20;;;;;;2249628;61;20442;-63
2022/02/19 00:51:14;0.00;0.00;0.62;0.00;0.00;0.62;1.70;1.00;;;20.80;24.20;;;;;;2250185;61;20720;-64
2022/02/19 00:54:01;0.00;0.00;0.62;0.00;0.00;0.62;2.20;1.20;;;20.70;24.10;;;;;;2249099;61;20497;-62
2022/02/19 00:56:46;0.00;0.00;0.62;0.00;0.00;0.62;4.80;1.67;;;20.70;24.20;;;;;;2249222;61;20716;-63
2022/02/19 00:59:30;0.00;0.00;0.62;0.00;0.00;0.62;1.90;1.20;;;20.70;24.20;;;;;;2249563;61;20405;-65
2022/02/19 01:02:14;0.00;0.00;0.62;0.00;0.00;0.62;3.47;1.20;;;20.70;24.20;;;;;;2249615;61;20360;-64
2022/02/19 01:05:08;0.00;0.00;0.62;0.00;0.00;0.62;2.80;1.30;;;20.80;24.30;;;;;;2249825;61;20368;-65
2022/02/19 01:07:54;0.00;0.00;0.62;0.00;0.00;0.62;2.77;1.40;;;20.70;24.20;;;;;;2249490;61;20384;-64
2022/02/19 01:10:39;0.00;0.00;0.62;0.00;0.00;0.62;3.57;1.60;;;20.70;24.20;;;;;;2249062;61;20709;-64
2022/02/19 01:13:24;0.00;0.00;0.62;0.00;0.00;0.62;2.60;1.10;;;20.70;24.20;;;;;;2249622;61;20629;-64
2022/02/19 01:16:09;0.00;0.00;0.62;0.00;0.00;0.62;3.60;1.20;;;20.70;24.20;;;;;;2249100;61;20412;-64
2022/02/19 01:18:54;0.00;0.00;0.62;0.00;0.00;0.62;2.80;1.30;;;20.70;24.10;;;;;;2248918;61;20459;-63
2022/02/19 01:21:38;0.00;0.00;0.62;0.00;0.00;0.62;3.40;1.37;;;20.70;24.10;;;;;;2249629;61;20408;-62
2022/02/19 01:24:26;0.00;0.00;0.62;0.00;0.00;0.62;2.60;1.37;;;20.70;24.10;;;;;;2249386;61;20620;-63
2022/02/19 01:27:16;0.00;0.00;0.62;0.00;0.00;0.62;2.10;1.30;;;20.60;24.00;;;;;;2249516;61;20361;-63
2022/02/19 01:30:06;0.00;0.00;0.62;0.00;0.00;0.62;2.57;1.07;;;20.70;24.10;;;;;;2249037;61;20420;-62
2022/02/19 01:32:50;0.00;0.00;0.62;0.00;0.00;0.62;2.37;1.20;;;20.60;24.00;;;;;;2249142;61;20585;-65
2022/02/19 01:35:35;0.00;0.00;0.62;0.00;0.00;0.62;2.30;1.23;;;20.60;24.00;;;;;;2249604;61;20442;-64
2022/02/19 01:38:19;0.00;0.00;0.62;0.00;0.00;0.62;2.67;1.20;;;20.60;24.00;;;;;;2249407;61;20433;-64
2022/02/19 01:41:09;0.00;0.00;0.62;0.00;0.00;0.62;2.33;1.20;;;20.60;24.00;;;;;;2248950;61;20400;-63
2022/02/19 01:43:54;0.00;0.00;0.62;0.00;0.00;0.62;1.97;1.10;;;20.60;24.00;;;;;;2249570;61;20368;-65
2022/02/19 01:46:40;0.00;0.00;0.62;0.00;0.00;0.62;2.80;1.23;;;20.60;24.00;;;;;;2249099;61;20364;-62
2022/02/19 01:49:24;0.00;0.00;0.62;0.00;0.00;0.62;3.53;1.50;;;20.60;24.00;;;;;;2249409;61;20613;-63
2022/02/19 01:52:11;0.00;0.00;0.62;0.00;0.00;0.62;1.93;1.13;;;20.60;24.00;;;;;;2249225;61;20429;-63
2022/02/19 01:54:55;0.00;0.00;0.62;0.00;0.00;0.62;2.57;1.30;;;20.60;24.00;;;;;;2249286;61;20604;-65
2022/02/19 01:58:02;0.00;0.00;0.62;0.00;0.00;0.62;4.00;1.90;;;20.60;24.00;;;;;;2249688;61;20356;-64
2022/02/19 02:01:02;0.00;0.00;0.62;0.00;0.00;0.62;2.80;1.43;;;20.60;24.00;;;;;;2249805;61;20461;-64
2022/02/19 02:04:06;0.00;0.00;0.62;0.00;0.00;0.62;3.30;1.17;;;20.60;24.00;;;;;;2249862;61;20425;-64
2022/02/19 02:06:52;0.00;0.00;0.62;0.00;0.00;0.62;2.43;1.00;;;20.50;23.90;;;;;;2249171;61;20435;-63
2022/02/19 02:09:38;0.00;0.00;0.62;0.00;0.00;0.62;2.47;1.20;;;20.50;23.90;;;;;;2248640;61;20376;-64
2022/02/19 02:12:24;0.00;0.00;0.62;0.00;0.00;0.62;2.63;1.40;;;20.50;24.00;;;;;;2249518;61;20360;-63
2022/02/19 02:15:29;0.00;0.00;0.62;0.00;0.00;0.62;2.43;1.10;;;20.50;24.00;;;;;;2249038;61;20420;-64
2022/02/19 02:18:22;0.00;0.00;0.62;0.00;0.00;0.62;2.50;1.10;;;20.50;24.00;;;;;;2248807;61;20371;-64
2022/02/19 02:21:07;0.00;0.00;0.62;0.00;0.00;0.62;2.67;1.53;;;20.50;24.00;;;;;;2249436;61;20428;-64
2022/02/19 02:23:54;0.00;0.00;0.62;0.00;0.00;0.62;2.60;1.07;;;20.50;23.90;;;;;;2248544;61;20360;-65
2022/02/19 02:26:40;0.00;0.00;0.62;0.00;0.00;0.62;2.30;1.03;;;20.50;23.90;;;;;;2249475;61;20369;-62
2022/02/19 02:29:25;0.00;0.00;0.62;0.00;0.00;0.62;3.50;1.20;;;20.50;23.90;;;;;;2249107;61;20376;-63
2022/02/19 02:32:10;0.00;0.00;0.62;0.00;0.00;0.62;2.90;1.37;;;20.40;23.80;;;;;;2248666;61;20380;-62
2022/02/19 02:34:55;0.00;0.00;0.62;0.00;0.00;0.62;2.60;1.03;;;20.50;23.90;;;;;;2249468;61;20675;-63
2022/02/19 02:37:42;0.00;0.00;0.62;0.00;0.00;0.62;2.60;1.50;;;20.40;23.80;;;;;;2248969;61;20360;-61
2022/02/19 02:40:29;0.00;0.00;0.62;0.00;0.00;0.62;3.07;1.17;;;20.40;23.80;;;;;;2248714;61;20452;-63
2022/02/19 02:43:13;0.00;0.00;0.62;0.00;0.00;0.62;2.50;1.07;;;20.40;23.80;;;;;;2249069;61;20485;-65
2022/02/19 02:45:58;0.00;0.00;0.62;0.00;0.00;0.62;2.60;1.10;;;20.40;23.80;;;;;;2248693;61;20400;-62
2022/02/19 02:48:42;0.00;0.00;0.62;0.00;0.00;0.62;2.33;1.30;;;20.40;23.80;;;;;;2249321;61;20396;-63
2022/02/19 02:51:29;0.00;0.00;0.62;0.00;0.00;0.62;2.20;1.07;;;20.40;23.80;;;;;;2248838;61;20725;-61
2022/02/19 02:54:13;0.00;0.00;0.62;0.00;0.00;0.62;3.47;1.40;;;20.40;23.90;;;;;;2248524;61;20762;-63
2022/02/19 02:57:02;0.00;0.00;0.62;0.00;0.00;0.62;2.23;1.00;;;20.40;23.80;;;;;;2249424;61;20453;-63
2022/02/19 02:59:47;0.00;0.00;0.62;0.00;0.00;0.62;2.67;1.37;;;20.40;23.90;;;;;;2248641;61;20380;-64
2022/02/19 03:02:34;0.00;0.00;0.62;0.00;0.00;0.62;3.90;1.20;;;20.40;23.90;;;;;;2248752;61;20634;-64
2022/02/19 03:05:25;0.00;0.00;0.62;0.00;0.00;0.62;2.00;0.90;;;20.40;23.90;;;;;;2248978;61;20368;-62
2022/02/19 03:08:10;0.00;0.00;0.62;0.00;0.00;0.62;2.10;1.10;;;20.40;23.90;;;;;;2248544;61;20357;-63
2022/02/19 03:10:54;0.00;0.00;0.62;0.00;0.00;0.62;3.40;1.30;;;20.40;23.90;;;;;;2249319;61;20360;-61
2022/02/19 03:13:40;0.00;0.00;0.62;0.00;0.00;0.62;1.90;0.93;;;20.40;23.90;;;;;;2248784;61;20527;-60
2022/02/19 03:16:27;0.00;0.00;0.62;0.00;0.00;0.62;2.27;1.00;;;20.40;23.90;;;;;;2248752;61;20361;-60
2022/02/19 03:19:11;0.00;0.00;0.62;0.00;0.00;0.62;3.83;1.30;;;20.40;23.90;;;;;;2249260;61;20408;-63
2022/02/19 03:21:56;0.00;0.00;0.62;0.00;0.00;0.62;2.87;1.47;;;20.30;23.90;;;;;;2249052;61;20388;-64
2022/02/19 03:24:41;0.00;0.00;0.62;0.00;0.00;0.62;1.93;1.20;;;20.40;24.00;;;;;;2248666;61;20474;-62
2022/02/19 03:27:28;0.00;0.00;0.62;0.00;0.00;0.62;3.33;1.70;;;20.40;24.00;;;;;;2248789;61;20357;-65
2022/02/19 03:30:18;0.00;0.00;0.62;0.00;0.00;0.62;3.10;1.47;;;20.30;23.90;;;;;;2248562;61;20594;-62
2022/02/19 03:33:02;0.00;0.00;0.62;0.00;0.00;0.62;2.53;1.23;;;20.30;24.00;;;;;;2249409;61;20474;-65
2022/02/19 03:35:47;0.00;0.00;0.62;0.00;0.00;0.62;2.90;1.10;;;20.30;24.00;;;;;;2248675;61;20365;-64
2022/02/19 03:38:32;0.00;0.00;0.62;0.00;0.00;0.62;1.83;1.13;;;20.30;24.00;;;;;;2249087;61;20412;-65
2022/02/19 03:41:21;0.00;0.00;0.62;0.00;0.00;0.62;1.93;1.03;;;20.30;24.00;;;;;;2249284;61;20396;-62
2022/02/19 03:44:06;0.00;0.00;0.62;0.00;0.00;0.62;2.47;1.10;;;20.30;24.00;;;;;;2248615;61;20353;-60
2022/02/19 03:46:56;0.00;0.00;0.62;0.00;0.00;0.62;2.47;0.93;;;20.30;24.00;;;;;;2248704;61;20364;-62
2022/02/19 03:49:54;0.00;0.00;0.62;0.00;0.00;0.62;2.33;1.20;;;20.30;24.00;;;;;;2249334;61;20415;-61
2022/02/19 03:52:38;0.00;0.00;0.62;0.00;0.00;0.62;5.60;1.30;;;20.30;24.00;;;;;;2249459;61;20388;-62
2022/02/19 03:55:26;0.00;0.00;0.62;0.00;0.00;0.62;2.33;0.80;;;20.30;24.10;;;;;;2250648;61;20388;-64
2022/02/19 03:58:14;0.00;0.00;0.62;0.00;0.00;0.62;3.63;1.10;;;20.30;24.10;;;;;;2249487;61;20369;-62
2022/02/19 04:00:59;0.00;0.00;0.62;0.00;0.00;0.62;3.33;1.40;;;20.30;24.10;;;;;;2249433;61;20349;-63
2022/02/19 04:03:45;0.00;0.00;0.62;0.00;0.00;0.62;2.60;0.90;;;20.30;24.10;;;;;;2249694;61;20384;-64
2022/02/19 04:06:29;0.00;0.00;0.62;0.00;0.00;0.62;2.20;0.80;;;20.30;24.10;;;;;;2249305;61;20369;-65
2022/02/19 04:09:15;0.00;0.00;0.62;0.00;0.00;0.62;1.87;0.90;;;20.30;24.10;;;;;;2248708;61;20427;-63
2022/02/19 04:12:05;0.00;0.00;0.62;0.00;0.00;0.62;1.87;0.90;;;20.30;24.10;;;;;;2248671;61;20530;-61
2022/02/19 04:14:53;0.00;0.00;0.62;0.00;0.00;0.62;2.87;0.90;;;20.20;24.00;;;;;;2248422;61;20435;-63
2022/02/19 04:17:39;0.00;0.00;0.62;0.00;0.00;0.62;4.00;1.23;;;20.20;24.00;;;;;;2249020;61;20686;-62
2022/02/19 04:20:27;0.00;0.00;0.62;0.00;0.00;0.62;2.70;1.30;;;20.30;24.10;;;;;;2248790;61;20408;-64
2022/02/19 04:23:12;0.00;0.00;0.62;0.00;0.00;0.62;2.10;1.03;;;20.30;24.10;;;;;;2249214;61;20370;-62
2022/02/19 04:25:57;0.00;0.00;0.62;0.00;0.00;0.62;1.50;0.90;;;20.30;24.10;;;;;;2249683;61;20364;-63
2022/02/19 04:28:49;0.00;0.00;0.62;0.00;0.00;0.62;2.10;0.97;;;20.30;24.10;;;;;;2249540;61;20396;-62
2022/02/19 04:31:40;0.00;0.00;0.62;0.00;0.00;0.62;1.80;0.87;;;20.20;24.00;;;;;;2249313;61;20372;-62
2022/02/19 04:34:33;0.00;0.00;0.62;0.00;0.00;0.62;2.80;1.03;;;20.20;24.10;;;;;;2249277;61;20388;-62
2022/02/19 04:37:19;0.00;0.00;0.62;0.00;0.00;0.62;3.27;1.40;;;20.20;24.10;;;;;;2248950;61;20361;-65
2022/02/19 04:40:07;0.00;0.00;0.62;0.00;0.00;0.62;1.90;1.00;;;20.20;24.10;;;;;;2249698;61;20607;-63
2022/02/19 04:43:02;0.00;0.00;0.62;0.00;0.00;0.62;2.47;1.23;;;20.20;24.10;;;;;;2249333;61;20721;-63
2022/02/19 04:45:52;0.00;0.00;0.62;0.00;0.00;0.62;3.00;1.20;;;20.20;24.10;;;;;;2249109;61;20372;-62
2022/02/19 04:48:38;0.00;0.00;0.62;0.00;0.00;0.62;2.90;1.10;;;20.20;24.10;;;;;;2249339;61;20416;-66
2022/02/19 04:51:24;0.00;0.00;0.62;0.00;0.00;0.62;2.23;1.00;;;20.20;24.20;;;;;;2249578;61;20452;-64
2022/02/19 04:54:13;0.00;0.00;0.62;0.00;0.00;0.62;2.77;1.00;;;20.20;24.20;;;;;;2249843;61;20408;-62
2022/02/19 04:56:58;0.00;0.00;0.62;0.00;0.00;0.62;2.23;1.00;;;20.20;24.20;;;;;;2249369;61;20360;-61
2022/02/19 04:59:47;0.00;0.00;0.62;0.00;0.00;0.62;3.93;1.30;;;20.20;24.20;;;;;;2249182;61;20397;-63
2022/02/19 05:02:34;0.00;0.00;0.62;0.00;0.00;0.62;1.33;1.00;;;20.20;24.20;;;;;;2249872;61;20723;-60
2022/02/19 05:05:18;0.00;0.00;0.62;0.00;0.00;0.62;2.07;1.00;;;20.20;24.20;;;;;;2249184;61;20385;-61
2022/02/19 05:08:07;0.00;0.00;0.62;0.00;0.00;0.62;2.00;1.10;;;20.20;24.30;;;;;;2249056;61;20400;-62
2022/02/19 05:10:53;0.00;0.00;0.62;0.00;0.00;0.62;2.87;0.90;;;20.20;24.30;;;;;;2249596;61;20372;-62
2022/02/19 05:13:48;0.00;0.00;0.62;0.00;0.00;0.62;2.03;1.23;;;20.20;24.30;;;;;;2249313;61;20582;-63
2022/02/19 05:16:33;0.00;0.00;0.62;0.00;0.00;0.62;2.50;1.20;;;20.20;24.30;;;;;;2250120;61;20388;-61
2022/02/19 05:19:21;0.00;0.00;0.62;0.00;0.00;0.62;1.70;1.00;;;20.10;24.30;;;;;;2249374;61;20824;-63
2022/02/19 05:22:05;0.00;0.00;0.62;0.00;0.00;0.62;2.37;1.00;;;20.20;24.30;;;;;;2249113;61;20752;-64
2022/02/19 05:24:51;0.00;0.00;0.62;0.00;0.00;0.62;3.10;1.27;;;20.10;24.20;;;;;;2250053;61;20817;-64
2022/02/19 05:27:40;0.00;0.00;0.62;0.00;0.00;0.62;1.97;0.83;;;20.10;24.20;;;;;;2248920;61;20733;-63
2022/02/19 05:30:27;0.00;0.00;0.62;0.00;0.00;0.62;2.77;1.13;;;20.10;24.20;;;;;;2249350;61;20400;-63
2022/02/19 05:33:31;0.00;0.00;0.62;0.00;0.00;0.62;1.90;1.00;;;20.10;24.30;;;;;;2249446;61;20452;-63
2022/02/19 05:36:17;0.00;0.00;0.62;0.00;0.00;0.62;3.00;1.07;;;20.10;24.30;;;;;;2248846;61;20404;-63
2022/02/19 05:39:02;0.00;0.00;0.62;0.00;0.00;0.62;2.00;1.00;;;20.10;24.30;;;;;;2249614;61;20458;-62
2022/02/19 05:41:51;0.00;0.00;0.62;0.00;0.00;0.62;3.30;1.20;;;20.10;24.30;;;;;;2248994;61;20376;-61
2022/02/19 05:44:43;0.00;0.00;0.62;0.00;0.00;0.62;1.87;0.90;;;20.10;24.30;;;;;;2248906;61;20360;-64
2022/02/19 05:47:27;0.00;0.00;0.62;0.00;0.00;0.62;2.53;1.10;;;20.10;24.30;;;;;;2249931;61;20345;-63
2022/02/19 05:50:31;0.00;0.00;0.62;0.00;0.00;0.62;3.23;0.90;;;20.10;24.30;;;;;;2249743;61;20419;-62
2022/02/19 05:53:21;0.00;0.00;0.62;0.00;0.00;0.62;1.43;0.80;;;20.10;24.30;;;;;;2249433;61;20356;-65
2022/02/19 05:56:06;0.00;0.00;0.62;0.00;0.00;0.62;2.60;1.20;;;20.10;24.30;;;;;;2249148;61;20396;-65
2022/02/19 05:58:51;0.00;0.00;0.62;0.00;0.00;0.62;2.43;0.93;;;20.10;24.40;;;;;;2248614;61;20380;-62
2022/02/19 06:01:41;0.00;0.00;0.62;0.00;0.00;0.62;2.47;1.20;;;20.10;24.40;;;;;;2249596;61;20369;-64
2022/02/19 06:04:27;0.00;0.00;0.62;0.00;0.00;0.62;1.60;0.90;;;20.10;24.40;;;;;;2249352;61;20780;-63
2022/02/19 06:07:12;0.00;0.00;0.62;0.00;0.00;0.62;2.53;1.13;;;20.10;24.40;;;;;;2248736;61;20407;-63
2022/02/19 06:09:57;0.00;0.00;0.62;0.00;0.00;0.62;2.47;1.10;;;20.10;24.40;;;;;;2249438;61;20457;-64
2022/02/19 06:12:42;0.00;0.00;0.62;0.00;0.00;0.62;1.50;0.93;;;20.10;24.40;;;;;;2249254;61;20420;-61
2022/02/19 06:15:36;0.00;0.00;0.62;0.00;0.00;0.62;1.93;0.80;;;20.10;24.50;;;;;;2249535;61;20606;-63
2022/02/19 06:18:48;0.00;0.00;0.62;0.00;0.00;0.62;2.53;1.10;;;20.10;24.50;;;;;;2248834;61;20392;-63
2022/02/19 06:21:33;0.00;0.00;0.62;0.00;0.00;0.62;2.40;1.00;;;20.10;24.50;;;;;;2248841;61;20485;-64
2022/02/19 06:24:18;0.00;0.00;0.62;0.00;0.00;0.62;1.50;0.90;;;20.10;24.50;;;;;;2249371;61;20365;-61
2022/02/19 06:27:05;0.00;0.00;0.62;0.00;0.00;0.62;2.07;1.40;;;20.10;24.60;;;;;;2248704;61;20772;-63
2022/02/19 06:30:03;0.00;0.00;0.62;0.00;0.00;0.62;2.23;1.17;;;20.10;24.60;;;;;;2248912;61;20607;-62
2022/02/19 06:33:01;0.00;0.00;0.62;0.00;0.00;0.62;3.23;1.20;;;20.10;24.60;;;;;;2248869;61;20385;-63
2022/02/19 06:35:48;0.00;0.00;0.62;0.00;0.00;0.62;2.77;1.00;;;20.00;24.50;;;;;;2248539;61;20395;-62
2022/02/19 06:38:39;0.00;0.00;0.62;0.00;0.00;0.62;2.80;1.03;;;20.00;24.20;;;;;;2249387;61;20428;-63
2022/02/19 06:41:26;0.00;0.00;0.62;0.00;0.00;0.62;3.37;1.33;;;20.00;23.90;;;;;;2248575;61;20424;-61
2022/02/19 06:44:24;0.00;0.00;0.62;0.00;0.00;0.62;3.93;1.40;;;19.90;23.60;;;;;;2248746;61;20369;-62
2022/02/19 06:47:12;0.00;0.00;0.62;0.00;0.00;0.62;5.70;1.87;;;19.90;23.40;;;;;;2248764;61;20596;-62
2022/02/19 06:49:56;0.00;0.00;0.62;0.00;0.00;0.62;4.43;1.47;;;19.80;23.20;;;;;;2249061;61;20774;-61
2022/02/19 06:52:43;0.00;0.00;0.62;0.00;0.00;0.62;3.40;1.50;;;19.70;23.00;;;;;;2249790;61;20771;-63
2022/02/19 06:55:30;0.00;0.00;0.62;0.00;0.00;0.62;3.63;1.50;;;19.60;22.70;;;;;;2248874;61;20791;-63
2022/02/19 06:58:15;0.00;0.00;0.62;0.00;0.00;0.62;4.17;1.37;;;19.50;22.60;;;;;;2248563;61;20797;-63
2022/02/19 07:01:08;0.00;0.00;0.62;0.00;0.00;0.62;6.73;1.90;;;19.40;22.50;;;;;;2249358;61;20401;-65
2022/02/19 07:03:54;0.00;0.00;0.62;0.00;0.00;0.62;3.30;1.70;;;19.30;22.30;;;;;;2249089;61;20430;-61
2022/02/19 07:07:11;0.00;0.00;0.62;0.00;0.00;0.62;3.70;1.60;;;19.30;22.30;;;;;;2253298;61;20463;-63
2022/02/19 07:09:57;0.00;0.00;0.62;0.00;0.00;0.62;7.83;1.70;;;19.20;22.30;;;;;;2249029;61;20428;-63
2022/02/19 07:12:42;0.00;0.00;0.62;0.00;0.00;0.62;4.70;1.83;;;19.10;22.20;;;;;;2249465;61;20496;-62
2022/02/19 07:15:27;0.00;0.00;0.62;0.00;0.00;0.62;4.73;1.60;;;19.00;22.20;;;;;;2249685;61;20482;-59
2022/02/19 07:18:31;0.00;0.00;0.62;0.00;0.00;0.62;4.87;1.50;;;19.00;22.30;;;;;;2249169;61;20352;-62
2022/02/19 07:21:22;0.00;0.00;0.62;0.00;0.00;0.62;3.40;1.53;;;18.90;22.20;;;;;;2249230;61;20436;-62
2022/02/19 07:24:07;0.00;0.00;0.62;0.00;0.00;0.62;4.87;1.63;;;18.80;22.00;;;;;;2248825;61;20357;-62
2022/02/19 07:26:56;0.00;0.00;0.62;0.00;0.00;0.62;4.73;1.70;;;18.80;22.00;;;;;;2249069;61;20612;-62
2022/02/19 07:29:42;0.00;0.00;0.62;0.00;0.00;0.62;4.17;1.67;;;18.70;22.00;;;;;;2249263;61;20741;-62
2022/02/19 07:32:27;0.00;0.00;0.62;0.00;0.00;0.62;5.33;2.03;;;18.60;21.90;;;;;;2248692;61;20404;-62
2022/02/19 07:35:14;0.00;0.00;0.62;0.00;0.00;0.62;3.80;1.60;;;18.50;21.90;;;;;;2248730;61;20384;-62
2022/02/19 07:37:59;0.00;0.00;0.62;0.00;0.00;0.62;4.27;1.43;;;18.50;22.00;;;;;;2249660;61;20364;-62
2022/02/19 07:40:45;0.00;0.00;0.62;0.00;0.00;0.62;5.00;1.63;;;18.40;22.00;;;;;;2248512;61;20528;-61
2022/02/19 07:43:32;0.00;0.00;0.62;0.00;0.00;0.62;8.20;1.77;;;18.40;22.00;;;;;;2248747;61;20391;-63
2022/02/19 07:46:40;0.00;0.00;0.62;0.00;0.00;0.62;3.13;2.03;;;18.30;21.90;;;;;;2248725;61;20365;-62
2022/02/19 07:59:37;0.00;0.00;0.62;0.00;0.00;0.62;3.60;1.50;;;18.10;22.00;;;;;;2249783;61;20376;-61
2022/02/19 08:02:22;0.00;0.00;0.62;0.00;0.00;0.62;5.43;2.20;;;18.10;22.00;;;;;;2249153;61;20472;-63
2022/02/19 08:05:08;0.00;0.00;0.62;0.00;0.00;0.62;3.20;1.50;;;18.00;22.00;;;;;;2249196;61;20752;-61
2022/02/19 08:07:59;0.00;0.00;0.62;0.00;0.00;0.62;6.80;2.33;;;18.00;22.00;;;;;;2249724;61;20360;-61
2022/02/19 08:10:46;0.00;0.00;0.62;0.00;0.00;0.62;7.27;2.30;;;18.00;21.90;;;;;;2249444;61;20380;-62
2022/02/19 08:13:30;0.00;0.00;0.62;0.00;0.00;0.62;6.23;2.67;;;17.90;21.80;;;;;;2249279;61;20384;-61
2022/02/19 08:16:16;0.00;0.00;0.62;0.00;0.00;0.62;5.00;2.20;;;17.90;21.70;;;;;;2249662;61;20360;-61
2022/02/19 08:19:01;0.00;0.00;0.62;0.00;0.00;0.62;5.30;2.00;;;17.80;22.00;;;;;;2249326;61;20461;-61
2022/02/19 08:21:46;0.00;0.00;0.62;0.00;0.00;0.62;6.30;1.57;;;17.80;21.40;;;;;;2250256;61;20713;-60
2022/02/19 08:24:30;0.00;0.00;0.62;0.00;0.00;0.62;6.07;2.10;;;17.70;21.30;;;;;;2249609;61;20408;-61
2022/02/19 08:27:15;0.00;0.00;0.62;0.00;0.00;0.62;4.17;1.80;;;17.60;21.20;;;;;;2249357;61;20765;-60
2022/02/19 08:30:00;0.00;0.00;0.62;0.00;0.00;0.62;6.57;2.10;;;17.50;21.30;;;;;;2249997;61;20388;-62
2022/02/19 08:32:46;0.00;0.00;0.62;0.00;0.00;0.62;6.70;1.90;;;17.40;21.30;;;;;;2249250;61;20360;-60
2022/02/19 08:35:31;0.00;0.00;0.62;0.00;0.00;0.62;6.10;2.17;;;17.40;21.30;;;;;;2249469;61;20392;-61
2022/02/19 08:38:17;0.00;0.00;0.62;0.00;0.00;0.62;2.93;1.53;;;17.30;21.40;;;;;;2249605;61;20757;-61
2022/02/19 08:41:53;0.00;0.00;0.62;0.00;0.00;0.62;4.20;1.63;;;17.30;21.70;;;;;;2341978;40;21534;-59
2022/02/19 08:44:37;0.00;0.00;0.62;0.00;0.00;0.62;3.90;1.60;;;17.20;21.90;;;;;;2243294;56;20408;-59
2022/02/19 08:47:25;0.00;0.00;0.62;0.00;0.00;0.62;4.47;1.50;;;17.30;22.20;;;;;;2250164;61;20437;-59
2022/02/19 08:50:12;0.00;0.00;0.62;0.00;0.00;0.62;4.53;1.20;;;17.30;22.40;;;;;;2245580;61;20433;-60
2022/02/19 08:52:57;0.00;0.00;0.62;0.00;0.00;0.62;4.30;1.87;;;17.30;22.40;;;;;;2249766;61;20460;-59
2022/02/19 08:55:42;0.00;0.00;0.62;0.00;0.00;0.62;3.80;1.37;;;17.40;22.60;;;;;;2250189;61;20436;-61
2022/02/19 08:58:27;0.00;0.00;0.62;0.00;0.00;0.62;2.07;1.10;;;17.50;22.70;;;;;;2248280;61;20367;-59
2022/02/19 09:01:12;0.00;0.00;0.62;0.00;0.00;0.62;2.40;1.37;;;17.50;22.70;;;;;;2250144;61;20598;-59
2022/02/19 09:03:58;0.00;0.00;0.62;0.00;0.00;0.62;5.43;1.70;;;17.60;22.80;;;;;;2249300;61;20407;-59
2022/02/19 09:06:44;0.00;0.00;0.62;0.00;0.00;0.62;2.60;1.20;;;17.60;22.80;;;;;;2249231;61;20755;-59
2022/02/19 09:09:29;0.00;0.00;0.62;0.00;0.00;0.62;3.20;1.40;;;17.70;22.90;;;;;;2250142;61;20433;-62
2022/02/19 09:12:15;0.00;0.00;0.62;0.00;0.00;0.62;3.47;1.87;;;17.70;22.90;;;;;;2248306;61;20388;-59
2022/02/19 09:15:00;0.00;0.00;0.62;0.00;0.00;0.62;2.50;1.00;;;17.80;23.00;;;;;;2250079;61;20396;-61
2022/02/19 09:17:44;0.00;0.00;0.62;0.00;0.00;0.62;3.27;1.80;;;17.80;23.00;;;;;;2250195;61;20360;-61
2022/02/19 09:20:29;0.00;0.00;0.62;0.00;0.00;0.62;2.53;1.10;;;17.90;23.10;;;;;;2248579;61;20574;-62
2022/02/19 09:23:15;0.00;0.00;0.62;0.00;0.00;0.62;2.70;1.30;;;18.00;23.20;;;;;;2250175;61;20388;-62
2022/02/19 09:26:00;0.00;0.00;0.62;0.00;0.00;0.62;2.30;1.03;;;18.00;23.20;;;;;;2249296;61;20489;-62
2022/02/19 09:28:44;0.00;0.00;0.62;0.00;0.00;0.62;4.60;1.70;;;18.00;23.20;;;;;;2249449;61;20365;-62
2022/02/19 09:31:29;0.00;0.00;0.62;0.00;0.00;0.62;3.00;1.33;;;18.10;23.30;;;;;;2249880;61;20575;-62
2022/02/19 09:34:13;0.00;0.00;0.62;0.00;0.00;0.62;2.17;1.23;;;18.10;23.30;;;;;;2249061;61;20393;-60
2022/02/19 09:36:58;0.00;0.00;0.62;0.00;0.00;0.62;2.40;1.10;;;18.20;23.30;;;;;;2250264;61;20580;-61
2022/02/19 09:39:43;0.00;0.00;0.62;0.00;0.00;0.62;2.10;1.00;;;18.20;23.30;;;;;;2249863;61;20364;-59
2022/02/19 09:42:28;0.00;0.00;0.62;0.00;0.00;0.62;4.73;1.57;;;18.20;23.30;;;;;;2248592;61;20387;-62
2022/02/19 09:45:13;0.00;0.00;0.62;0.00;0.00;0.62;4.70;1.80;;;18.30;23.40;;;;;;2250100;61;20745;-59
2022/02/19 09:47:58;0.00;0.00;0.62;0.00;0.00;0.62;2.53;1.00;;;18.30;23.40;;;;;;2249967;61;20369;-60
2022/02/19 09:50:44;0.00;0.00;0.62;0.00;0.00;0.62;3.30;1.40;;;18.40;23.50;;;;;;2249530;61;20365;-59
2022/02/19 09:53:31;0.00;0.00;0.62;0.00;0.00;0.62;1.93;1.17;;;18.40;23.50;;;;;;2249913;61;20767;-61
2022/02/19 09:56:17;0.00;0.00;0.62;0.00;0.00;0.62;3.13;1.13;;;18.40;23.50;;;;;;2249322;61;20353;-61
2022/02/19 09:59:05;0.00;0.00;0.62;0.00;0.00;0.62;2.50;1.20;;;18.50;23.50;;;;;;2250017;61;20357;-61
2022/02/19 10:02:01;0.00;0.00;0.62;0.00;0.00;0.62;1.90;0.93;;;18.50;23.50;;;;;;2249762;61;20412;-61
2022/02/19 10:04:46;0.00;0.00;0.62;0.00;0.00;0.62;3.57;1.17;;;18.60;23.60;;;;;;2248726;61;20365;-61
2022/02/19 10:07:31;0.00;0.00;0.62;0.00;0.00;0.62;2.80;1.30;;;18.60;23.60;;;;;;2249959;61;20553;-60
2022/02/19 10:10:25;0.00;0.00;0.62;0.00;0.00;0.62;1.93;1.07;;;18.70;23.60;;;;;;2249742;61;20369;-61
2022/02/19 10:13:11;0.00;0.00;0.62;0.00;0.00;0.62;3.50;1.20;;;18.70;23.60;;;;;;2249560;61;20583;-60
2022/02/19 10:15:56;0.00;0.00;0.62;0.00;0.00;0.62;1.80;1.00;;;18.70;23.60;;;;;;2249800;61;20421;-59
2022/02/19 10:18:45;0.00;0.00;0.62;0.00;0.00;0.62;3.20;1.20;;;18.80;23.70;;;;;;2249132;61;20373;-60
2022/02/19 10:21:29;0.00;0.00;0.62;0.00;0.00;0.62;2.07;1.70;;;18.80;23.70;;;;;;2249883;61;20397;-60
2022/02/19 10:24:14;0.00;0.00;0.62;0.00;0.00;0.62;2.83;1.20;;;18.80;23.60;;;;;;2249992;61;20484;-62
2022/02/19 10:26:58;0.00;0.00;0.62;0.00;0.00;0.62;1.97;1.00;;;18.90;23.70;;;;;;2248659;61;20360;-59
2022/02/19 10:29:50;0.00;0.00;0.62;0.00;0.00;0.62;2.40;1.40;;;18.90;23.70;;;;;;2249800;61;20365;-61
2022/02/19 10:32:51;0.00;0.00;0.62;0.00;0.00;0.62;2.53;0.93;;;19.00;23.80;;;;;;2249400;61;20545;-61
2022/02/19 10:35:38;0.00;0.00;0.62;0.00;0.00;0.62;2.10;1.13;;;19.00;23.70;;;;;;2249459;61;20771;-62
2022/02/19 10:38:23;0.00;0.00;0.62;0.00;0.00;0.62;2.57;0.93;;;19.00;23.70;;;;;;2249897;61;20396;-61
2022/02/19 10:41:11;0.00;0.00;0.62;0.00;0.00;0.62;1.80;1.00;;;19.10;23.70;;;;;;2248520;61;20368;-62
2022/02/19 10:43:55;0.00;0.00;0.62;0.00;0.00;0.62;1.87;1.00;;;19.10;23.70;;;;;;2249729;61;20389;-61
2022/02/19 10:46:41;0.00;0.00;0.62;0.00;0.00;0.62;1.90;0.93;;;19.10;23.70;;;;;;2249858;61;20364;-61
2022/02/19 10:49:27;0.00;0.00;0.62;0.00;0.00;0.62;4.13;1.03;;;19.20;23.70;;;;;;2248717;61;20361;-61
2022/02/19 10:52:13;0.00;0.00;0.62;0.00;0.00;0.62;2.73;1.03;;;19.20;23.70;;;;;;2249592;61;20388;-61
2022/02/19 10:55:04;0.00;0.00;0.62;0.00;0.00;0.62;1.83;1.10;;;19.20;23.70;;;;;;2249147;61;20590;-60
2022/02/19 10:57:48;0.00;0.00;0.62;0.00;0.00;0.62;2.07;1.00;;;19.20;23.60;;;;;;2249281;61;20359;-60
2022/02/19 11:00:35;0.00;0.00;0.62;0.00;0.00;0.62;1.40;0.90;;;19.30;23.70;;;;;;2249505;61;20360;-60
2022/02/19 11:03:21;0.00;0.00;0.62;0.00;0.00;0.62;1.80;1.00;;;19.30;23.70;;;;;;2248392;61;20379;-60
2022/02/19 11:06:06;0.00;0.00;0.62;0.00;0.00;0.62;2.00;1.00;;;19.30;23.70;;;;;;2249744;61;20369;-60
2022/02/19 11:08:52;0.00;0.00;0.62;0.00;0.00;0.62;2.23;1.07;;;19.30;23.70;;;;;;2250151;61;20388;-60
2022/02/19 11:11:39;0.00;0.00;0.62;0.00;0.00;0.62;2.50;1.00;;;19.40;23.70;;;;;;2248271;61;20745;-61